Monday, February 08, 2016
06:07 UTC
  |  Log In   |  Register Free
Airport Search:

Raton Municipal/Crews Field Airport
(KRTN)

Raton Municipal/Crews Field Airport Diagram
No Airport Diagram Available

FAA data valid effective Dec 10 2015 - Feb 4 2016 (unless otherwise noted).

 
 
 
 
 
 
 
 
 
 
 
 
 
 
Current Aviation Weather for KRTN

Weather Summary


The most recent METAR observation for RTN was updated at: 12:53 UTC
METAR for KRTN is not available. Closest METAR is for KTAD
KRTN  (most recent observation was updatred at 80:55 UTC)
080553Z AUTO 20006KT 10SM CLR M06/M09 A3036 RMK AO2 SLP279 T10611089 10078 21061 53021 TSNO

KTAD  (32.0 nm SW)   (most recent observation was updated at 80:55 UTC)
080554Z AUTO 00000KT 10SM BKN018 M06/M09 A3040 RMK AO2 SLP302 T10611089 10017 21072 51007

TAF for KRTN is not available.
GlobalAir.com is loading additional information.
 Current Weather at RTN
25.0 F° (-3.9 C°)

North winds at 5.8 mph
Pressure:
30.34 in
Humidity:
75%
Wind:
North at 5.8 mph
Dew Point:
18.0 F° (-7.8 C°)
Visibility:
10.00 mi
RTN NOAA Radar




Find All Airport Services Find A Hotel Find A Rental Car Find A Golf Course Find A Restaurant $100 Hamburger



Airport Weather Forecast for KRTN

Translated METAR for KRTN (0553 UTC)
METAR:
KRTN 080553Z AUTO 20006KT 10SM CLR M06/M09 A3036 RMK AO2 SLP279 T10611089 10078 21061 53021 TSNO
Conditions at:
KRTN (Raton Muni/Crews Field, NM) observed 0553 UTC 08 February 2016
Temperature:
-6°C (21.2°F)
Dewpoint:
-9°C (15.8°F) [RH = 79.3]
Pressure:
30.36 inches Hg (1028.1 mb)
pressure at sea level is 279 in Hg
Winds:
from the SSW (200 degrees) at 6.9 mph (6 knots: 3.1 m/s)
Visibility:
10 mile(s)
Ceiling:
at least 12,000 feet AGL
Clouds:
Clear below 12,000 feet AGL
Remarks:
site is un-manned
site is automated and HAS a precipitation sensor

Translated TAF for TAF for RTN is not available. Refer to local area forecast.
FBO's on the Field
FBO Company Facility Photos Services Transportation Aviation Fuel Prices: Prices include tax
Catering Weather Repair Courtesy Rental Type 100LL JetA JetA+ MOGAS 8087
 
Express Aviation Services

This FBO has not yet been rated
FS:Phillips 66
Last Updated: Feb-05
Login to update fuel prices
SS:
Contact Express Aviation ServicesMore FBO Information
 
Add another FBO Facility Photos Catering Weather Repair Courtesy Rental Type 100LL JetA JetA+ MOGAS 8087
Services Transportation Aviation Fuel Prices: Prices include tax


model-print
model-print
model-print
model-print